createdAt,value
2022-10-04T00:00:58.685Z,99089.78
2022-10-04T00:03:31.088Z,99098.31
2022-10-04T00:05:59.821Z,99090.56
2022-10-04T00:08:31.046Z,99081.19
2022-10-04T00:11:37.845Z,99076.09
2022-10-04T00:14:16.485Z,99059.16
2022-10-04T00:16:46.559Z,99052.03
2022-10-04T00:19:16.074Z,99051.63
2022-10-04T00:21:57.609Z,99061.16
2022-10-04T00:24:29.438Z,99064.72
2022-10-04T00:27:25.337Z,99070.03
2022-10-04T00:30:04.478Z,99070.38
2022-10-04T00:32:43.174Z,99070.63
2022-10-04T00:35:24.877Z,99076.09
2022-10-04T00:37:58.099Z,99076.28
2022-10-04T00:40:29.547Z,99074.63
2022-10-04T00:43:01.293Z,99067.63
2022-10-04T00:46:00.172Z,99057.78
2022-10-04T00:48:46.947Z,99064.69
2022-10-04T00:51:16.268Z,99076.31
2022-10-04T00:53:55.600Z,99076.69
2022-10-04T00:56:28.972Z,99076.94
2022-10-04T00:58:56.673Z,99068.34
2022-10-04T01:01:27.057Z,99075.56
2022-10-04T01:03:57.536Z,99069.69
2022-10-04T01:06:26.472Z,99077.03
2022-10-04T01:09:06.107Z,99072.81
2022-10-04T01:11:41.849Z,99065.06
2022-10-04T01:14:11.556Z,99066.78
2022-10-04T01:16:38.519Z,99072.22
2022-10-04T01:19:24.521Z,99072.47
2022-10-04T01:22:13.613Z,99064.72
2022-10-04T01:24:43.060Z,99067.41
2022-10-04T01:27:31.167Z,99063.19
2022-10-04T01:29:59.022Z,99058.78
2022-10-04T01:32:25.982Z,99057.09
2022-10-04T01:34:52.760Z,99045.75
2022-10-04T01:37:19.533Z,99048.38
2022-10-04T01:39:46.857Z,99045.78
2022-10-04T01:42:19.958Z,99056.53
2022-10-04T01:45:12.820Z,99048.13
2022-10-04T01:47:48.657Z,99029.56
2022-10-04T01:50:32.225Z,99021.72
2022-10-04T01:53:21.539Z,99027.75
2022-10-04T01:55:52.171Z,99013.06
2022-10-04T01:58:23.838Z,99022.66
2022-10-04T02:01:03.330Z,99016.69
2022-10-04T02:03:35.822Z,99021.34
2022-10-04T02:06:07.981Z,99024.13
2022-10-04T02:08:39.495Z,99023.38
2022-10-04T02:11:07.086Z,99023.47
2022-10-04T02:13:39.771Z,99029.63
2022-10-04T02:16:12.086Z,99022.03
2022-10-04T02:18:41.816Z,99022.63
2022-10-04T02:21:10.220Z,99012.72
2022-10-04T02:23:39.484Z,99022.44
2022-10-04T02:26:08.245Z,99020.03
2022-10-04T02:28:36.777Z,99026.44
2022-10-04T02:31:24.206Z,99009.25
2022-10-04T02:33:55.563Z,99012.97
2022-10-04T02:36:29.680Z,99012.16
2022-10-04T02:39:21.236Z,99024.38
2022-10-04T02:42:03.085Z,99020.91
2022-10-04T02:44:41.445Z,99032.28
2022-10-04T02:47:29.414Z,99028.06
2022-10-04T02:50:05.772Z,99045.59
2022-10-04T02:52:44.153Z,99046.50
2022-10-04T02:55:30.113Z,99043.09
2022-10-04T02:57:58.524Z,99038.66
2022-10-04T03:00:31.509Z,99022.84
2022-10-04T03:03:25.179Z,99028.91
2022-10-04T03:06:07.951Z,99022.03
2022-10-04T03:08:43.419Z,99025.44
2022-10-04T03:11:11.675Z,99032.53
2022-10-04T03:13:41.786Z,99035.25
2022-10-04T03:16:08.655Z,99037.00
2022-10-04T03:18:37.390Z,99033.53
2022-10-04T03:21:08.272Z,99030.81
2022-10-04T03:23:35.789Z,99025.44
2022-10-04T03:26:19.841Z,99023.47
2022-10-04T03:28:47.114Z,99018.78
2022-10-04T03:31:15.901Z,99022.31
2022-10-04T03:33:44.012Z,99022.03
2022-10-04T03:36:15.140Z,99039.03
2022-10-04T03:38:41.837Z,99031.50
2022-10-04T03:41:11.704Z,99030.50
2022-10-04T03:43:44.500Z,99024.97
2022-10-04T03:46:12.884Z,99021.38
2022-10-04T03:48:52.179Z,99021.53
2022-10-04T03:51:27.738Z,99023.50
2022-10-04T03:54:02.550Z,99015.66
2022-10-04T03:56:36.629Z,99014.69
2022-10-04T03:59:06.670Z,99018.25
2022-10-04T04:01:45.459Z,99013.25
2022-10-04T04:04:24.503Z,99013.19
2022-10-04T04:07:07.319Z,99007.88
2022-10-04T04:10:02.943Z,99011.19
2022-10-04T04:12:43.936Z,99017.22
2022-10-04T04:15:12.569Z,99017.94
2022-10-04T04:17:47.337Z,99011.84
2022-10-04T04:20:28.721Z,99015.41
2022-10-04T04:23:01.109Z,99024.22
2022-10-04T04:25:32.145Z,99019.91
2022-10-04T04:28:13.991Z,99027.00
2022-10-04T04:30:46.457Z,99031.69
2022-10-04T04:33:25.364Z,99036.53
2022-10-04T04:35:56.184Z,99040.38
2022-10-04T04:38:26.441Z,99031.72
2022-10-04T04:40:57.462Z,99033.59
2022-10-04T04:43:28.245Z,99026.59
2022-10-04T04:46:22.284Z,99037.81
2022-10-04T04:48:45.212Z,99030.13
2022-10-04T04:51:19.679Z,99030.69
2022-10-04T04:53:47.827Z,99033.94
2022-10-04T04:56:23.455Z,99024.25
2022-10-04T04:58:52.706Z,99036.06
2022-10-04T05:01:57.857Z,99037.69
2022-10-04T05:04:24.930Z,99042.69
2022-10-04T05:07:02.389Z,99041.63
2022-10-04T05:09:34.676Z,99039.75
2022-10-04T05:12:22.809Z,99042.34
2022-10-04T05:14:52.535Z,99039.53
2022-10-04T05:17:26.611Z,99042.84
2022-10-04T05:19:58.026Z,99052.44
2022-10-04T05:22:27.032Z,99045.28
2022-10-04T05:25:02.904Z,99047.56
2022-10-04T05:27:38.149Z,99044.81
2022-10-04T05:30:21.864Z,99050.16
2022-10-04T05:33:05.509Z,99053.41
2022-10-04T05:35:47.995Z,99066.28
2022-10-04T05:38:28.284Z,99067.47
2022-10-04T05:41:08.145Z,99069.84
2022-10-04T05:43:34.872Z,99075.56
2022-10-04T05:46:14.070Z,99073.44
2022-10-04T05:48:43.588Z,99069.41
2022-10-04T05:51:22.256Z,99060.88
2022-10-04T05:53:50.064Z,99064.81
2022-10-04T05:56:26.045Z,99074.06
2022-10-04T05:59:14.161Z,99077.97
2022-10-04T06:02:00.671Z,99071.72
2022-10-04T06:04:49.140Z,99073.13
2022-10-04T06:07:30.465Z,99078.03
2022-10-04T06:10:11.419Z,99077.00
2022-10-04T06:12:56.355Z,99081.34
2022-10-04T06:15:29.067Z,99079.28
2022-10-04T06:18:05.553Z,99072.75
2022-10-04T06:20:43.067Z,99075.13
2022-10-04T06:23:16.561Z,99086.34
2022-10-04T06:25:43.392Z,99088.72
2022-10-04T06:28:22.070Z,99089.97
2022-10-04T06:31:19.510Z,99097.44
2022-10-04T06:34:04.645Z,99095.22
2022-10-04T06:36:34.249Z,99100.06
2022-10-04T06:39:18.381Z,99110.63
2022-10-04T06:42:09.829Z,99121.09
2022-10-04T06:44:48.784Z,99137.97
2022-10-04T06:47:52.978Z,99154.56
2022-10-04T06:50:44.305Z,99161.44
2022-10-04T06:53:34.824Z,99155.31
2022-10-04T06:56:16.413Z,99172.91
2022-10-04T06:58:58.819Z,99174.72
2022-10-04T07:01:31.789Z,99185.13
2022-10-04T07:04:19.644Z,99184.78
2022-10-04T07:07:35.543Z,99183.38
2022-10-04T07:10:33.713Z,99181.31
2022-10-04T07:13:04.912Z,99185.66
2022-10-04T07:15:48.579Z,99183.97
2022-10-04T07:18:26.091Z,99190.25
2022-10-04T07:21:03.256Z,99196.22
2022-10-04T07:23:44.635Z,99207.88
2022-10-04T07:26:27.075Z,99214.25
2022-10-04T07:29:18.533Z,99207.75
2022-10-04T07:31:49.560Z,99211.19
2022-10-04T07:34:25.965Z,99218.56
2022-10-04T07:37:00.769Z,99225.16
2022-10-04T07:39:40.194Z,99228.28
2022-10-04T07:42:46.859Z,99239.41
2022-10-04T07:45:26.828Z,99233.56
2022-10-04T07:48:20.473Z,99229.59
2022-10-04T07:51:19.021Z,99229.03
2022-10-04T07:53:59.602Z,99235.31
2022-10-04T07:56:55.695Z,99231.69
2022-10-04T07:59:58.266Z,99224.53
2022-10-04T08:03:02.627Z,99227.13
2022-10-04T08:05:42.801Z,99224.44
2022-10-04T08:08:23.369Z,99236.66
2022-10-04T08:11:18.225Z,99228.56
2022-10-04T08:14:19.364Z,99228.06
2022-10-04T08:17:16.678Z,99230.16
2022-10-04T08:20:17.243Z,99232.03
2022-10-04T08:23:29.338Z,99232.84
2022-10-04T08:26:08.087Z,99231.72
2022-10-04T08:28:56.293Z,99239.88
2022-10-04T08:31:46.290Z,99235.19
2022-10-04T08:34:31.819Z,99241.69
2022-10-04T08:37:13.240Z,99233.56
2022-10-04T08:40:17.813Z,99237.38
2022-10-04T08:43:09.567Z,99246.66
2022-10-04T08:46:09.936Z,99242.50
2022-10-04T08:48:58.033Z,99235.56
2022-10-04T08:52:02.772Z,99244.63
2022-10-04T08:55:21.336Z,99235.84
2022-10-04T08:58:00.724Z,99234.69
2022-10-04T09:00:57.072Z,99233.69
2022-10-04T09:03:42.852Z,99226.47
2022-10-04T09:06:43.550Z,99226.41
2022-10-04T09:09:35.034Z,99218.16
2022-10-04T09:12:02.325Z,99215.47
2022-10-04T09:15:28.323Z,99217.44
2022-10-04T09:18:22.652Z,99224.38
2022-10-04T09:21:14.588Z,99220.19
2022-10-04T09:24:00.240Z,99217.31
2022-10-04T09:26:57.747Z,99217.38
2022-10-04T09:29:34.914Z,99216.91
2022-10-04T09:32:20.380Z,99216.84
2022-10-04T09:35:06.522Z,99228.09
2022-10-04T09:37:41.051Z,99217.34
2022-10-04T09:40:08.378Z,99213.16
2022-10-04T09:42:58.269Z,99214.94
2022-10-04T09:45:50.573Z,99208.25
2022-10-04T09:48:29.830Z,99211.59
2022-10-04T09:51:29.593Z,99199.50
2022-10-04T09:54:21.521Z,99204.06
2022-10-04T09:57:02.284Z,99198.75
2022-10-04T09:59:57.471Z,99199.41
2022-10-04T10:02:50.865Z,99193.09
2022-10-04T10:05:23.636Z,99192.50
2022-10-04T10:08:02.665Z,99190.13
2022-10-04T10:11:04.013Z,99193.91
2022-10-04T10:13:45.927Z,99195.00
2022-10-04T10:16:21.584Z,99191.03
2022-10-04T10:19:19.510Z,99190.59
2022-10-04T10:22:16.674Z,99192.06
2022-10-04T10:25:12.917Z,99192.63
2022-10-04T10:27:52.475Z,99195.91
2022-10-04T10:30:37.952Z,99192.00
2022-10-04T10:33:31.192Z,99191.97
2022-10-04T10:36:35.370Z,99190.28
2022-10-04T10:39:39.412Z,99198.47
2022-10-04T10:42:18.233Z,99195.38
2022-10-04T10:44:56.176Z,99189.69
2022-10-04T10:48:04.734Z,99191.28
2022-10-04T10:51:10.693Z,99196.16
2022-10-04T10:54:05.349Z,99193.44
2022-10-04T10:56:47.555Z,99192.19
2022-10-04T10:59:53.139Z,99195.16
2022-10-04T11:02:48.253Z,99197.28
2022-10-04T11:05:44.337Z,99186.22
2022-10-04T11:08:45.125Z,99197.97
2022-10-04T11:11:29.569Z,99194.41
2022-10-04T11:14:24.169Z,99187.13
2022-10-04T11:17:09.705Z,99185.81
2022-10-04T11:20:11.245Z,99176.41
2022-10-04T11:22:57.556Z,99172.41
2022-10-04T11:25:51.627Z,99183.50
2022-10-04T11:28:26.628Z,99180.28
2022-10-04T11:31:07.316Z,99180.56
2022-10-04T11:33:58.773Z,99176.47
2022-10-04T11:36:47.352Z,99170.72
2022-10-04T11:39:14.354Z,99179.16
2022-10-04T11:42:03.404Z,99170.22
2022-10-04T11:45:01.121Z,99166.78
2022-10-04T11:47:51.122Z,99178.06
2022-10-04T11:50:43.404Z,99168.59
2022-10-04T11:53:27.264Z,99168.72
2022-10-04T11:56:04.776Z,99173.13
2022-10-04T11:58:48.714Z,99167.19
2022-10-04T12:01:55.049Z,99156.19
2022-10-04T12:04:27.689Z,99155.69
2022-10-04T12:07:29.313Z,99154.31
2022-10-04T12:10:04.810Z,99154.81
2022-10-04T12:13:01.739Z,99143.34
2022-10-04T12:15:36.183Z,99137.06
2022-10-04T12:18:40.600Z,99141.41
2022-10-04T12:21:20.895Z,99141.75
2022-10-04T12:24:19.132Z,99132.31
2022-10-04T12:27:01.154Z,99129.31
2022-10-04T12:30:10.507Z,99146.44
2022-10-04T12:33:02.919Z,99135.19
2022-10-04T12:35:44.118Z,99128.63
2022-10-04T12:38:37.421Z,99125.19
2022-10-04T12:41:34.408Z,99125.72
2022-10-04T12:44:28.437Z,99122.69
2022-10-04T12:47:17.356Z,99121.78
2022-10-04T12:50:03.109Z,99116.13
2022-10-04T12:52:46.155Z,99112.31
2022-10-04T12:55:52.825Z,99111.91
2022-10-04T12:58:32.536Z,99111.31
2022-10-04T13:01:13.801Z,99112.34
2022-10-04T13:04:31.587Z,99112.22
2022-10-04T13:07:19.421Z,99110.41
2022-10-04T13:10:24.298Z,99115.09
2022-10-04T13:13:13.081Z,99112.09
2022-10-04T13:18:59.480Z,99109.38
2022-10-04T13:21:39.708Z,99108.16
2022-10-04T13:24:22.244Z,99108.03
2022-10-04T13:27:05.446Z,99115.66
2022-10-04T13:29:55.670Z,99101.63
2022-10-04T13:32:28.937Z,99106.34
2022-10-04T13:35:20.720Z,99107.16
2022-10-04T13:38:08.907Z,99116.28
2022-10-04T13:40:39.948Z,99119.63
2022-10-04T13:43:22.772Z,99120.47
2022-10-04T13:46:00.645Z,99114.94
2022-10-04T13:48:51.123Z,99121.44
2022-10-04T13:51:21.494Z,99113.66
2022-10-04T13:54:09.929Z,99121.81
2022-10-04T13:57:06.258Z,99124.72
2022-10-04T13:59:54.684Z,99125.41
2022-10-04T14:02:24.939Z,99117.47
2022-10-04T14:05:29.567Z,99127.88
2022-10-04T14:08:34.072Z,99126.25
2022-10-04T14:11:44.363Z,99123.03
2022-10-04T14:14:55.546Z,99125.56
2022-10-04T14:17:51.964Z,99127.81
2022-10-04T14:20:35.271Z,99138.13
2022-10-04T14:23:08.628Z,99131.53
2022-10-04T14:25:44.176Z,99133.81
2022-10-04T14:28:27.168Z,99135.19
2022-10-04T14:31:26.105Z,99140.09
2022-10-04T14:34:55.826Z,99134.00
2022-10-04T14:38:02.001Z,99132.16
2022-10-04T14:40:48.442Z,99137.72
2022-10-04T14:43:27.599Z,99137.88
2022-10-04T14:46:13.835Z,99135.78
2022-10-04T14:48:58.636Z,99142.13
2022-10-04T14:51:36.044Z,99143.06
2022-10-04T14:54:16.667Z,99135.34
2022-10-04T14:57:29.153Z,99140.31
2022-10-04T15:00:19.943Z,99139.34
2022-10-04T15:03:31.767Z,99137.56
2022-10-04T15:06:13.995Z,99132.81
2022-10-04T15:09:08.717Z,99131.00
2022-10-04T15:12:27.095Z,99146.88
2022-10-04T15:15:26.547Z,99140.09
2022-10-04T15:18:00.291Z,99149.25
2022-10-04T15:20:53.272Z,99143.34
2022-10-04T15:23:55.146Z,99143.69
2022-10-04T15:26:23.160Z,99158.22
2022-10-04T15:28:54.443Z,99162.94
2022-10-04T15:31:45.810Z,99156.16
2022-10-04T15:34:50.547Z,99157.84
2022-10-04T15:37:25.687Z,99163.97
2022-10-04T15:40:28.311Z,99165.16
2022-10-04T15:43:20.188Z,99168.88
2022-10-04T15:46:18.779Z,99167.31
2022-10-04T15:48:53.180Z,99175.88
2022-10-04T15:51:41.567Z,99174.50
2022-10-04T15:54:47.232Z,99173.59
2022-10-04T15:57:34.958Z,99171.97
2022-10-04T16:00:13.881Z,99177.72
2022-10-04T16:02:51.573Z,99174.84
2022-10-04T16:05:23.467Z,99171.03
2022-10-04T16:08:15.543Z,99180.69
2022-10-04T16:11:14.104Z,99178.09
2022-10-04T16:13:54.706Z,99177.03
2022-10-04T16:16:42.070Z,99178.00
2022-10-04T16:19:16.331Z,99175.59
2022-10-04T16:22:07.980Z,99178.59
2022-10-04T16:24:49.951Z,99178.03
2022-10-04T16:27:35.865Z,99184.34
2022-10-04T16:30:25.691Z,99186.78
2022-10-04T16:32:58.500Z,99185.25
2022-10-04T16:35:30.201Z,99193.50
2022-10-04T16:38:12.279Z,99193.59
2022-10-04T16:40:47.840Z,99196.56
2022-10-04T16:43:17.317Z,99200.06
2022-10-04T16:46:09.943Z,99198.56
2022-10-04T16:48:48.480Z,99202.59
2022-10-04T16:51:18.055Z,99198.47
2022-10-04T16:54:06.101Z,99200.59
2022-10-04T16:57:00.677Z,99211.31
2022-10-04T17:00:00.510Z,99207.84
2022-10-04T17:02:42.285Z,99215.63
2022-10-04T17:05:30.578Z,99217.94
2022-10-04T17:07:57.451Z,99218.41
2022-10-04T17:10:34.925Z,99220.09
2022-10-04T17:13:27.173Z,99230.13
2022-10-04T17:16:22.178Z,99242.16
2022-10-04T17:19:11.829Z,99247.50
2022-10-04T17:22:05.886Z,99251.91
2022-10-04T17:24:44.573Z,99256.09
2022-10-04T17:27:47.253Z,99265.22
2022-10-04T17:30:39.230Z,99261.94
2022-10-04T17:33:35.072Z,99259.53
2022-10-04T17:36:26.365Z,99272.53
2022-10-04T17:39:11.331Z,99279.84
2022-10-04T17:41:49.948Z,99281.84
2022-10-04T17:44:37.130Z,99279.09
2022-10-04T17:47:23.778Z,99285.38
2022-10-04T17:50:24.071Z,99291.63
2022-10-04T17:53:18.338Z,99290.19
2022-10-04T17:56:00.673Z,99291.56
2022-10-04T17:58:43.601Z,99296.19
2022-10-04T18:01:14.453Z,99292.09
2022-10-04T18:03:54.705Z,99296.00
2022-10-04T18:06:49.318Z,99298.09
2022-10-04T18:09:51.215Z,99300.09
2022-10-04T18:12:55.367Z,99312.88
2022-10-04T18:15:38.373Z,99317.94
2022-10-04T18:18:11.257Z,99310.72
2022-10-04T18:20:46.208Z,99310.53
2022-10-04T18:23:25.416Z,99315.50
2022-10-04T18:25:57.605Z,99318.78
2022-10-04T18:28:25.166Z,99315.72
2022-10-04T18:30:59.233Z,99317.22
2022-10-04T18:33:37.300Z,99325.59
2022-10-04T18:36:28.140Z,99325.88
2022-10-04T18:39:20.078Z,99327.09
2022-10-04T18:42:20.731Z,99329.91
2022-10-04T18:44:58.970Z,99339.09
2022-10-04T18:47:37.117Z,99341.31
2022-10-04T18:50:32.204Z,99342.75
2022-10-04T18:53:21.459Z,99339.84
2022-10-04T18:56:00.078Z,99345.81
2022-10-04T18:59:03.561Z,99346.50
2022-10-04T19:02:04.835Z,99342.81
2022-10-04T19:05:05.320Z,99352.19
2022-10-04T19:07:56.896Z,99349.25
2022-10-04T19:10:42.248Z,99350.75
2022-10-04T19:13:43.721Z,99357.44
2022-10-04T19:16:45.476Z,99352.66
2022-10-04T19:19:46.146Z,99359.22
2022-10-04T19:22:29.037Z,99370.22
2022-10-04T19:25:13.761Z,99367.97
2022-10-04T19:27:51.701Z,99364.00
2022-10-04T19:30:25.327Z,99368.72
2022-10-04T19:33:00.520Z,99372.63
2022-10-04T19:35:42.302Z,99374.69
2022-10-04T19:38:29.484Z,99371.50
2022-10-04T19:41:18.996Z,99376.06
2022-10-04T19:43:48.697Z,99378.78
2022-10-04T19:46:39.422Z,99370.91
2022-10-04T19:49:20.608Z,99372.72
2022-10-04T19:51:55.332Z,99378.16
2022-10-04T19:54:32.369Z,99368.72
2022-10-04T19:57:03.284Z,99378.56
2022-10-04T19:59:40.691Z,99379.94
2022-10-04T20:02:12.315Z,99377.66
2022-10-04T20:04:40.099Z,99371.88
2022-10-04T20:07:18.620Z,99372.88
2022-10-04T20:09:52.884Z,99368.66
2022-10-04T20:12:36.211Z,99372.53
2022-10-04T20:15:26.624Z,99384.72
2022-10-04T20:17:54.921Z,99377.16
2022-10-04T20:20:42.611Z,99375.25
2022-10-04T20:23:11.952Z,99383.31
2022-10-04T20:25:45.528Z,99386.66
2022-10-04T20:28:27.591Z,99378.78
2022-10-04T20:30:57.372Z,99387.56
2022-10-04T20:33:33.069Z,99373.38
2022-10-04T20:36:31.878Z,99380.69
2022-10-04T20:39:04.949Z,99396.91
2022-10-04T20:41:51.544Z,99395.53
2022-10-04T20:44:41.241Z,99398.44
2022-10-04T20:47:38.102Z,99401.56
2022-10-04T20:50:11.893Z,99406.31
2022-10-04T20:52:45.313Z,99409.44
2022-10-04T20:55:28.478Z,99403.50
2022-10-04T20:58:03.663Z,99397.50
2022-10-04T21:00:33.969Z,99412.63
2022-10-04T21:03:15.448Z,99404.22
2022-10-04T21:05:42.346Z,99396.69
2022-10-04T21:08:15.415Z,99406.56
2022-10-04T21:11:03.279Z,99402.41
2022-10-04T21:13:59.124Z,99402.56
2022-10-04T21:16:41.336Z,99402.75
2022-10-04T21:19:33.456Z,99414.34
2022-10-04T21:22:07.927Z,99399.50
2022-10-04T21:25:00.842Z,99406.44
2022-10-04T21:27:31.968Z,99410.78
2022-10-04T21:30:00.096Z,99410.75
2022-10-04T21:32:28.395Z,99399.88
2022-10-04T21:34:55.140Z,99398.81
2022-10-04T21:37:22.056Z,99402.69
2022-10-04T21:39:48.807Z,99409.88
2022-10-04T21:42:16.090Z,99414.78
2022-10-04T21:44:42.793Z,99408.31
2022-10-04T21:47:10.254Z,99410.38
2022-10-04T21:49:37.463Z,99411.66
2022-10-04T21:52:04.581Z,99417.09
2022-10-04T21:54:31.996Z,99420.56
2022-10-04T21:56:59.036Z,99411.59
2022-10-04T21:59:25.802Z,99393.59
2022-10-04T22:01:52.823Z,99392.44
2022-10-04T22:04:19.621Z,99399.56
2022-10-04T22:06:46.494Z,99398.00
2022-10-04T22:09:13.600Z,99399.91
2022-10-04T22:11:40.321Z,99400.94
2022-10-04T22:14:07.044Z,99411.72
2022-10-04T22:16:33.832Z,99417.28
2022-10-04T22:19:00.599Z,99422.09
2022-10-04T22:21:27.522Z,99406.69
2022-10-04T22:23:54.363Z,99405.81
2022-10-04T22:26:22.696Z,99386.31
2022-10-04T22:28:51.656Z,99391.56
2022-10-04T22:31:26.564Z,99391.69
2022-10-04T22:33:53.544Z,99407.53
2022-10-04T22:36:27.489Z,99413.88
2022-10-04T22:38:59.892Z,99412.28
2022-10-04T22:41:33.744Z,99402.66
2022-10-04T22:44:15.222Z,99398.16
2022-10-04T22:46:45.763Z,99409.28
2022-10-04T22:49:16.154Z,99416.25
2022-10-04T22:51:45.136Z,99412.78
2022-10-04T22:54:13.837Z,99413.72
2022-10-04T22:56:41.374Z,99424.59
2022-10-04T22:59:13.236Z,99417.66
2022-10-04T23:01:40.730Z,99403.69
2022-10-04T23:04:20.978Z,99411.44
2022-10-04T23:06:48.381Z,99409.66
2022-10-04T23:09:15.513Z,99420.31
2022-10-04T23:11:42.711Z,99426.69
2022-10-04T23:14:09.420Z,99422.66
2022-10-04T23:16:37.092Z,99424.66
2022-10-04T23:19:12.059Z,99416.06
2022-10-04T23:21:40.278Z,99430.22
2022-10-04T23:24:25.204Z,99420.72
2022-10-04T23:26:58.809Z,99437.47
2022-10-04T23:29:29.768Z,99434.00
2022-10-04T23:31:57.455Z,99434.88
2022-10-04T23:34:35.369Z,99430.56
2022-10-04T23:37:03.087Z,99437.72
2022-10-04T23:39:34.930Z,99442.13
2022-10-04T23:42:10.910Z,99433.56
2022-10-04T23:44:38.212Z,99437.00
2022-10-04T23:47:21.567Z,99438.81
2022-10-04T23:49:51.251Z,99431.00
2022-10-04T23:52:39.726Z,99424.88
2022-10-04T23:55:29.132Z,99420.50
2022-10-04T23:57:56.648Z,99424.00
